createdAt,value
2024-05-09T00:01:15.468Z,11.26
2024-05-09T00:11:36.821Z,11.19
2024-05-09T00:21:57.951Z,11.13
2024-05-09T00:32:19.227Z,10.88
2024-05-09T00:42:40.758Z,10.94
2024-05-09T00:53:02.058Z,10.87
2024-05-09T01:03:23.543Z,10.77
2024-05-09T01:13:46.307Z,10.70
2024-05-09T01:24:07.399Z,10.55
2024-05-09T01:34:29.700Z,10.49
2024-05-09T01:44:51.089Z,10.54
2024-05-09T01:55:12.143Z,10.35
2024-05-09T02:05:33.403Z,10.26
2024-05-09T02:15:55.459Z,10.28
2024-05-09T02:26:16.948Z,10.16
2024-05-09T02:36:37.941Z,10.10
2024-05-09T02:46:59.050Z,10.00
2024-05-09T02:57:20.096Z,9.91
2024-05-09T03:07:43.747Z,9.90
2024-05-09T03:18:06.382Z,9.99
2024-05-09T03:28:27.762Z,9.95
2024-05-09T03:38:50.987Z,9.85
2024-05-09T03:49:12.623Z,10.04
2024-05-09T03:59:34.059Z,9.83
2024-05-09T04:09:55.021Z,9.99
2024-05-09T04:20:28.680Z,10.60
2024-05-09T04:30:57.797Z,11.26
2024-05-09T04:41:20.192Z,12.03
2024-05-09T04:51:41.870Z,12.45
2024-05-09T05:02:03.010Z,12.56
2024-05-09T05:12:43.239Z,12.69
2024-05-09T05:23:05.905Z,12.79
2024-05-09T05:33:27.239Z,12.97
2024-05-09T05:43:48.834Z,13.37
2024-05-09T05:54:10.278Z,13.42
2024-05-09T06:04:31.319Z,13.75
2024-05-09T06:14:52.728Z,14.28
2024-05-09T06:25:14.417Z,14.75
2024-05-09T06:35:35.650Z,15.34
2024-05-09T06:45:57.717Z,15.81
2024-05-09T06:56:18.964Z,16.38
2024-05-09T07:06:39.995Z,16.68
2024-05-09T07:17:01.435Z,17.00
2024-05-09T07:27:27.856Z,16.87
2024-05-09T07:37:50.211Z,16.69
2024-05-09T07:49:44.863Z,16.61
2024-05-09T07:58:57.112Z,16.35
2024-05-09T08:09:21.142Z,16.63
2024-05-09T08:19:42.848Z,16.71
2024-05-09T08:30:06.184Z,17.03
2024-05-09T08:40:34.130Z,17.16
2024-05-09T08:50:59.613Z,16.99
2024-05-09T09:01:21.196Z,17.18
2024-05-09T09:11:42.400Z,17.25
2024-05-09T09:22:04.300Z,17.32
2024-05-09T09:32:29.305Z,17.63
2024-05-09T09:42:55.411Z,17.34
2024-05-09T09:53:17.239Z,17.00
2024-05-09T10:03:39.132Z,17.07
2024-05-09T10:14:01.197Z,16.97
2024-05-09T10:24:22.801Z,17.19
2024-05-09T10:34:47.216Z,17.03
2024-05-09T10:45:09.009Z,16.95
2024-05-09T10:55:30.376Z,17.16
2024-05-09T11:05:52.479Z,16.96
2024-05-09T11:16:21.879Z,17.00
2024-05-09T11:26:43.439Z,17.15
2024-05-09T11:37:05.091Z,17.28
2024-05-09T11:47:26.763Z,17.07
2024-05-09T11:57:48.082Z,17.11
2024-05-09T12:08:10.098Z,17.21
2024-05-09T12:18:33.985Z,17.08
2024-05-09T12:28:55.082Z,16.98
2024-05-09T12:39:16.224Z,17.49
2024-05-09T12:49:37.375Z,17.49
2024-05-09T12:59:59.493Z,17.35
2024-05-09T13:10:29.020Z,17.28
2024-05-09T13:20:53.617Z,17.37
2024-05-09T13:31:15.020Z,17.32
2024-05-09T13:41:36.031Z,17.55
2024-05-09T13:51:57.126Z,17.59
2024-05-09T14:02:19.059Z,17.63
2024-05-09T14:12:40.415Z,17.51
2024-05-09T14:23:02.077Z,17.45
2024-05-09T14:33:27.124Z,17.58
2024-05-09T14:43:48.778Z,17.49
2024-05-09T14:54:10.068Z,17.55
2024-05-09T15:04:31.637Z,17.52
2024-05-09T15:14:53.213Z,17.52
2024-05-09T15:25:18.649Z,17.44
2024-05-09T15:35:41.902Z,17.32
2024-05-09T15:46:03.534Z,17.20
2024-05-09T15:56:25.101Z,17.26
2024-05-09T16:06:48.153Z,17.39
2024-05-09T16:17:09.705Z,17.34
2024-05-09T16:27:31.350Z,17.21
2024-05-09T16:37:52.863Z,17.26
2024-05-09T16:48:14.846Z,17.21
2024-05-09T16:58:36.292Z,17.14
2024-05-09T17:09:05.295Z,17.00
2024-05-09T17:19:29.964Z,16.80
2024-05-09T17:29:51.341Z,16.76
2024-05-09T17:40:16.840Z,16.74
2024-05-09T17:50:39.344Z,16.53
2024-05-09T18:01:01.312Z,16.38
2024-05-09T18:11:23.044Z,16.17
2024-05-09T18:21:44.251Z,16.27
2024-05-09T18:32:06.254Z,16.09
2024-05-09T18:42:27.729Z,15.54
2024-05-09T18:52:48.735Z,15.35
2024-05-09T19:03:12.515Z,15.19
2024-05-09T19:13:35.281Z,15.08
2024-05-09T19:23:56.720Z,14.93
2024-05-09T19:34:18.302Z,14.78
2024-05-09T19:44:39.828Z,14.67
2024-05-09T19:55:01.091Z,14.44
2024-05-09T20:05:22.575Z,14.22
2024-05-09T20:15:44.287Z,14.22
2024-05-09T20:26:05.840Z,14.01
2024-05-09T20:36:26.927Z,14.01
2024-05-09T20:46:48.244Z,13.82
2024-05-09T20:57:09.579Z,13.65
2024-05-09T21:07:30.628Z,13.83
2024-05-09T21:17:51.907Z,13.78
2024-05-09T21:28:14.921Z,13.67
2024-05-09T21:38:36.009Z,13.60
2024-05-09T21:48:58.243Z,13.50
2024-05-09T21:59:19.659Z,13.59
2024-05-09T22:09:45.482Z,13.64
2024-05-09T22:20:14.701Z,13.60
2024-05-09T22:30:40.343Z,13.33
2024-05-09T22:41:02.188Z,13.27
2024-05-09T22:51:23.598Z,13.15
2024-05-09T23:01:44.813Z,12.94
2024-05-09T23:12:06.853Z,12.93
2024-05-09T23:22:28.184Z,12.85
2024-05-09T23:32:49.596Z,12.71
2024-05-09T23:43:12.484Z,12.62
2024-05-09T23:53:34.151Z,12.48
